Latest Weather Observations for Innisfail Aero

IDQ60801

Issued at 4:32 am EST Monday 24 July 2017 (issued every 30 minutes, with the page automatically refreshed every 10 minutes)

About weather observations | Map of weather stations | Latest weather observations for QLD | Other Formats
Station Details ID: 032197 Name: INNISFAIL AERODROME Lat: -17.56 Lon: 146.01 Height: 11.84 m
Data from the previous 72 hours. | See also: Recent months for locations in Queensland
Date/Time
EST
Temp
°C
App
Temp
°C
Dew
Point
°C
Rel
Hum
%
Delta-T
°C
Wind Press
QNH
hPa
Press
MSL
hPa
Rain since
9am
mm
Dir  Spd
km/h
Gust
km/h
Spd
kts
Gust
kts
24/04:30am 15.8 17.3 15.6 99 0.1 NW 2 6 1 3 1017.5 1017.5 0.0
24/04:16am 15.8 16.5 15.6 99 0.1 NNW 6 7 3 4 1017.3 1017.3 0.0
24/04:00am 16.0 16.8 15.8 99 0.1 NNW 6 7 3 4 1017.3 1017.3 0.0
24/03:30am 16.5 18.6 16.3 99 0.1 CALM 0 0 0 0 1017.2 1017.2 0.0
24/03:00am 15.9 17.7 15.6 98 0.2 CALM 0 9 0 5 1017.2 1017.2 0.0
24/02:51am 16.6 18.4 16.4 99 0.1 SW 2 7 1 4 1017.2 1017.2 0.0
24/02:47am 16.8 17.9 16.6 99 0.1 SW 6 7 3 4 1017.2 1017.2 0.0
24/02:30am 16.9 19.2 16.7 99 0.1 CALM 0 0 0 0 1017.3 1017.3 0.0
24/02:00am 16.5 18.6 16.3 99 0.1 CALM 0 0 0 0 1017.6 1017.6 0.0
24/01:30am 16.5 18.6 16.2 98 0.2 CALM 0 0 0 0 1017.7 1017.7 0.0
24/01:27am 16.4 18.4 16.1 98 0.2 CALM 0 0 0 0 1017.8 1017.8 0.0
24/01:15am 16.5 18.6 16.2 98 0.2 CALM 0 0 0 0 1017.8 1017.8 0.0
24/01:03am 16.9 19.2 16.7 99 0.1 CALM 0 0 0 0 1017.8 1017.8 0.0
24/01:00am 16.9 19.2 16.7 99 0.1 CALM 0 2 0 1 1017.8 1017.8 0.0
24/12:30am 17.2 18.8 17.0 99 0.1 NNW 4 6 2 3 1018.1 1018.1 0.0
24/12:00am 16.6 18.0 16.3 98 0.2 WNW 4 7 2 4 1018.3 1018.3 0.0
 
Date/Time
EST
Temp
°C
App
Temp
°C
Dew
Point
°C
Rel
Hum
%
Delta-T
°C
Wind Press
QNH
hPa
Press
MSL
hPa
Rain since
9am
mm
Dir  Spd
km/h
Gust
km/h
Spd
kts
Gust
kts
23/11:38pm 16.3 16.9 15.7 96 0.4 SW 7 9 4 5 1018.3 1018.3 0.0
23/11:37pm 16.6 17.3 16.1 97 0.3 SW 7 9 4 5 1018.3 1018.3 0.0
23/11:30pm 17.9 19.4 17.6 98 0.2 SSW 6 9 3 5 1018.3 1018.3 0.0
23/11:00pm 17.3 19.6 16.8 97 0.3 CALM 0 0 0 0 1018.5 1018.5 0.0
23/10:30pm 17.8 20.3 17.3 97 0.3 CALM 0 0 0 0 1018.4 1018.4 0.0
23/10:17pm 17.8 20.3 17.3 97 0.3 CALM 0 0 0 0 1018.4 1018.4 0.0
23/10:04pm 17.7 20.1 17.1 96 0.4 CALM 0 0 0 0 1018.4 1018.4 0.0
23/10:00pm 17.6 20.0 17.0 96 0.4 CALM 0 0 0 0 1018.4 1018.4 0.0
23/09:49pm 17.8 20.3 17.2 96 0.4 CALM 0 0 0 0 1018.4 1018.4 0.0
23/09:30pm 18.0 20.6 17.4 96 0.4 CALM 0 0 0 0 1018.4 1018.4 0.0
23/09:21pm 18.2 20.8 17.6 96 0.4 CALM 0 0 0 0 1018.4 1018.4 0.0
23/09:07pm 18.3 20.9 17.5 95 0.5 CALM 0 0 0 0 1018.3 1018.3 0.0
23/09:03pm 18.4 21.0 17.4 94 0.6 CALM 0 0 0 0 1018.3 1018.3 0.0
23/09:00pm 18.5 21.2 17.7 95 0.5 CALM 0 0 0 0 1018.3 1018.3 0.0
23/08:30pm 19.1 20.7 18.3 95 0.5 SW 7 9 4 5 1018.2 1018.2 0.0
23/08:14pm 18.4 19.2 17.4 94 0.6 SW 9 9 5 5 1018.1 1018.1 0.0
23/08:00pm 18.4 19.2 17.2 93 0.7 SSW 9 11 5 6 1018.0 1018.0 0.0
23/07:53pm 18.5 19.3 17.3 93 0.7 SSW 9 11 5 6 1017.8 1017.8 0.0
23/07:33pm 19.0 20.0 17.7 92 0.8 SSW 9 11 5 6 1017.6 1017.6 0.0
23/07:30pm 19.1 20.1 17.8 92 0.8 SSW 9 11 5 6 1017.6 1017.6 0.0
23/07:00pm 19.4 20.8 17.9 91 0.9 SSW 7 7 4 4 1017.2 1017.2 0.0
23/06:30pm 19.9 21.1 18.2 90 1.1 SSE 9 9 5 5 1016.7 1016.7 0.0
23/06:00pm 20.7 21.8 17.9 84 1.7 SE 9 11 5 6 1016.6 1016.6 0.0
23/05:30pm 22.1 22.6 18.3 79 2.4 SE 13 17 7 9 1016.5 1016.5 0.0
23/05:00pm 23.0 23.2 18.5 76 2.8 SE 15 20 8 11 1016.2 1016.2 0.0
23/04:30pm 23.5 23.3 18.4 73 3.2 SE 17 22 9 12 1016.1 1016.1 0.0
23/04:00pm 23.8 23.2 18.4 72 3.4 SE 19 26 10 14 1016.0 1016.0 0.0
23/03:30pm 24.2 23.9 18.2 69 3.8 SSE 17 22 9 12 1016.0 1016.0 0.0
23/03:00pm 24.5 23.5 18.9 71 3.6 SE 22 28 12 15 1016.1 1016.1 0.0
23/02:30pm 24.3 23.7 18.5 70 3.7 SE 19 24 10 13 1016.2 1016.2 0.0
23/02:00pm 25.3 24.7 19.7 71 3.6 SE 22 30 12 16 1016.5 1016.5 0.0
23/01:30pm 24.5 23.3 18.4 69 3.9 SE 22 28 12 15 1017.0 1017.0 0.0
23/01:00pm 25.0 24.4 18.9 69 3.9 SE 20 28 11 15 1017.4 1017.4 0.0
23/12:30pm 23.8 22.8 17.5 68 3.9 SSE 19 28 10 15 1017.9 1017.9 0.0
23/12:00pm 23.8 23.5 18.2 71 3.5 SSE 17 24 9 13 1018.3 1018.3 0.0
23/11:30am 24.2 23.9 18.2 69 3.8 S 17 24 9 13 1018.9 1018.9 0.0
23/11:00am 23.5 23.0 17.7 70 3.6 SSE 17 20 9 11 1019.2 1019.2 0.0
23/10:30am 23.2 22.3 17.7 71 3.4 SSE 19 24 10 13 1019.4 1019.4 0.0
23/10:00am 22.8 22.7 17.9 74 3.0 SSE 15 20 8 11 1019.7 1019.7 0.0
23/09:30am 23.2 23.2 18.1 73 3.2 S 15 20 8 11 1019.6 1019.6 0.0
23/09:00am 22.4 24.1 18.6 79 2.4 S 7 11 4 6 1019.5 1019.5 0.0
23/08:30am 21.1 23.2 18.9 87 1.4 SW 6 9 3 5 1019.3 1019.3 0.0
23/08:00am 19.1 22.2 18.6 97 0.3 CALM 0 4 0 2 1019.0 1019.0 0.0
23/07:30am 17.9 20.6 17.7 99 0.1 CALM 0 0 0 0 1018.6 1018.6 0.0
23/07:00am 17.0 18.2 16.8 99 0.1 NE 6 7 3 4 1018.6 1018.6 0.0
23/06:30am 16.9 19.2 16.7 99 0.1 CALM 0 0 0 0 1018.3 1018.3 0.0
23/06:00am 16.5 18.6 16.2 98 0.2 CALM 0 0 0 0 1018.0 1018.0 0.0
23/05:30am 16.6 18.8 16.4 99 0.1 CALM 0 4 0 2 1017.5 1017.5 0.0
23/05:19am 16.5 17.2 16.2 98 0.2 WSW 7 7 4 4 1017.5 1017.5 0.0
23/05:00am 15.8 17.5 15.3 97 0.3 CALM 0 0 0 0 1017.5 1017.5 0.0
23/04:39am 15.5 16.0 15.0 97 0.3 W 6 7 3 4 1017.3 1017.3 0.0
23/04:30am 16.5 17.2 16.2 98 0.2 WSW 7 9 4 5 1017.3 1017.3 0.0
23/04:00am 16.5 18.1 16.0 97 0.3 WSW 2 6 1 3 1017.4 1017.4 0.0
23/03:30am 17.0 17.9 16.5 97 0.3 SW 7 9 4 5 1017.5 1017.5 0.0
23/03:00am 17.2 19.5 16.7 97 0.3 CALM 0 0 0 0 1017.8 1017.8 0.0
23/02:30am 17.5 20.0 17.2 98 0.2 CALM 0 6 0 3 1018.0 1018.0 0.0
23/02:00am 17.6 20.1 17.3 98 0.2 CALM 0 0 0 0 1018.2 1018.2 0.0
23/01:30am 17.3 19.7 17.0 98 0.2 CALM 0 0 0 0 1018.4 1018.4 0.0
23/01:00am 17.3 19.7 17.0 98 0.2 CALM 0 0 0 0 1018.6 1018.6 0.0
23/12:30am 16.9 18.8 16.6 98 0.2 NNE 2 6 1 3 1018.8 1018.8 0.0
23/12:22am 16.9 19.1 16.6 98 0.2 CALM 0 0 0 0 1018.8 1018.8 0.0
23/12:00am 16.5 17.4 16.0 97 0.3 N 6 7 3 4 1018.9 1018.9 0.0
 
Date/Time
EST
Temp
°C
App
Temp
°C
Dew
Point
°C
Rel
Hum
%
Delta-T
°C
Wind Press
QNH
hPa
Press
MSL
hPa
Rain since
9am
mm
Dir  Spd
km/h
Gust
km/h
Spd
kts
Gust
kts
22/11:46pm 16.6 17.5 16.1 97 0.3 NNE 6 7 3 4 1019.0 1019.0 0.0
22/11:30pm 16.6 18.2 16.0 96 0.4 NNE 2 7 1 4 1019.1 1019.1 0.0
22/11:00pm 17.2 19.4 16.4 95 0.5 CALM 0 0 0 0 1019.2 1019.2 0.0
22/10:30pm 17.4 19.6 16.6 95 0.5 CALM 0 0 0 0 1019.3 1019.3 0.0
22/10:00pm 17.2 19.2 16.1 93 0.6 CALM 0 0 0 0 1019.5 1019.5 0.0
22/09:30pm 17.7 19.9 16.6 93 0.7 CALM 0 0 0 0 1019.4 1019.4 0.0
22/09:00pm 17.6 18.3 16.1 91 0.9 SW 7 9 4 5 1019.3 1019.3 0.0
22/08:30pm 18.1 18.5 16.4 90 1.0 SW 9 9 5 5 1019.1 1019.1 0.0
22/08:00pm 18.7 19.3 16.7 88 1.2 SW 9 9 5 5 1018.8 1018.8 0.0
22/07:30pm 18.9 19.8 16.7 87 1.3 SSW 7 9 4 5 1018.5 1018.5 0.0
22/07:00pm 19.7 20.6 16.5 82 1.9 S 7 11 4 6 1018.0 1018.0 0.0
22/06:30pm 20.5 21.6 17.1 81 2.1 S 7 11 4 6 1017.6 1017.6 0.0
22/06:00pm 21.1 21.1 17.1 78 2.4 SSE 13 20 7 11 1017.2 1017.2 0.0
22/05:30pm 21.9 21.9 17.3 75 2.8 SE 13 17 7 9 1016.9 1016.9 0.0
22/05:00pm 22.3 21.8 16.8 71 3.4 SE 15 20 8 11 1016.6 1016.6 0.0
22/04:30pm 23.1 22.4 17.3 70 3.6 SE 17 22 9 12 1016.4 1016.4 0.0
22/04:00pm 23.2 22.4 17.0 68 3.8 ESE 17 24 9 13 1016.4 1016.4 0.0
22/03:30pm 23.8 22.5 17.3 67 4.0 SE 20 24 11 13 1016.4 1016.4 0.0
22/03:00pm 23.6 22.4 17.6 69 3.7 SE 20 24 11 13 1016.6 1016.6 0.0
22/02:30pm 23.5 21.7 17.0 67 4.0 SE 22 28 12 15 1016.8 1016.8 0.0
22/02:00pm 23.9 23.2 17.4 67 4.0 SE 17 22 9 12 1017.1 1017.1 0.0
22/01:30pm 23.7 22.5 17.4 68 3.9 SE 20 24 11 13 1017.5 1017.5 0.0
22/01:00pm 23.8 22.0 17.8 69 3.7 SE 24 28 13 15 1017.9 1017.9 0.0
22/12:30pm 23.2 22.4 17.2 69 3.7 S 17 22 9 12 1018.3 1018.3 0.0
22/12:00pm 23.1 22.4 17.3 70 3.6 SSE 17 24 9 13 1018.8 1018.8 0.0
22/11:30am 23.5 22.3 17.5 69 3.7 SE 20 28 11 15 1019.2 1019.2 0.0
22/11:00am 23.4 22.4 16.7 66 4.1 SSE 17 24 9 13 1019.5 1019.5 0.0
22/10:30am 23.6 23.0 17.6 69 3.7 S 17 24 9 13 1019.9 1019.9 0.0
22/10:00am 23.7 23.0 17.4 68 3.9 SSE 17 22 9 12 1020.1 1020.1 0.0
22/09:30am 22.5 23.0 18.3 77 2.6 S 13 17 7 9 1020.2 1020.2 0.0
22/09:00am 20.3 22.8 19.1 93 0.8 SW 4 9 2 5 1020.1 1020.1 0.0
22/08:30am 18.1 20.9 17.9 99 0.1 CALM 0 0 0 0 1020.1 1020.1 0.0
22/08:00am 17.5 20.0 17.3 99 0.1 CALM 0 0 0 0 1019.8 1019.8 0.0
22/07:30am 16.8 19.0 16.6 99 0.1 CALM 0 0 0 0 1019.5 1019.5 0.0
22/07:00am 16.3 18.3 16.0 98 0.2 CALM 0 0 0 0 1019.1 1019.1 0.0
22/06:30am 16.5 18.6 16.3 99 0.1 CALM 0 0 0 0 1018.7 1018.7 0.0
22/06:00am 16.5 18.6 16.3 99 0.1 CALM 0 0 0 0 1018.2 1018.2 0.0
22/05:30am 16.5 18.6 16.3 99 0.1 CALM 0 0 0 0 1017.7 1017.7 0.0
22/05:00am 16.5 18.6 16.3 99 0.1 CALM 0 0 0 0 1017.6 1017.6 0.0
22/04:30am 16.4 18.5 16.2 99 0.1 CALM 0 0 0 0 1017.4 1017.4 0.0
22/04:00am 15.9 17.0 15.7 99 0.1 NE 4 9 2 5 1017.4 1017.4 0.0
22/03:30am 15.9 17.8 15.7 99 0.1 CALM 0 0 0 0 1017.3 1017.3 0.0
22/03:22am 15.6 17.4 15.4 99 0.1 CALM 0 0 0 0 1017.4 1017.4 0.0
22/03:00am 15.3 16.9 15.0 98 0.2 CALM 0 0 0 0 1017.3 1017.3 0.0
22/02:55am 15.1 16.7 14.8 98 0.2 CALM 0 0 0 0 1017.3 1017.3 0.0
22/02:51am 15.1 16.7 14.8 98 0.2 CALM 0 0 0 0 1017.3 1017.3 0.0
22/02:33am 15.1 16.7 14.8 98 0.2 CALM 0 0 0 0 1017.4 1017.4 0.0
22/02:30am 15.1 16.7 14.8 98 0.2 CALM 0 0 0 0 1017.4 1017.4 0.0
22/02:00am 15.1 16.7 14.8 98 0.2 CALM 0 0 0 0 1017.4 1017.4 0.0
22/01:30am 14.6 14.8 14.3 98 0.2 W 6 6 3 3 1017.6 1017.6 0.0
22/01:27am 14.7 15.0 14.4 98 0.2 W 6 6 3 3 1017.6 1017.6 0.0
22/01:00am 14.7 15.0 14.4 98 0.2 WNW 6 6 3 3 1017.8 1017.8 0.0
22/12:53am 15.1 15.5 14.8 98 0.2 W 6 6 3 3 1017.9 1017.9 0.0
22/12:30am 15.2 15.6 14.7 97 0.3 W 6 6 3 3 1018.0 1018.0 0.0
22/12:00am 15.3 15.6 14.5 95 0.5 W 6 7 3 4 1018.1 1018.1 0.0
 
Date/Time
EST
Temp
°C
App
Temp
°C
Dew
Point
°C
Rel
Hum
%
Delta-T
°C
Wind Press
QNH
hPa
Press
MSL
hPa
Rain since
9am
mm
Dir  Spd
km/h
Gust
km/h
Spd
kts
Gust
kts
21/11:30pm 16.6 16.9 16.0 96 0.4 WSW 9 13 5 7 1018.2 1018.2 0.0
21/11:00pm 15.9 16.3 15.4 97 0.3 WSW 7 11 4 6 1018.5 1018.5 0.0
21/10:30pm 15.8 17.5 15.2 96 0.3 CALM 0 0 0 0 1018.6 1018.6 0.0
21/10:00pm 16.1 16.8 15.5 96 0.3 N 6 6 3 3 1018.7 1018.7 0.0
21/09:30pm 16.5 18.4 15.7 95 0.5 CALM 0 0 0 0 1018.6 1018.6 0.0
21/09:00pm 16.4 17.3 15.1 92 0.8 N 4 6 2 3 1018.4 1018.4 0.0
21/08:30pm 18.0 18.4 16.2 89 1.1 SW 9 11 5 6 1018.3 1018.3 0.0
21/08:00pm 18.1 18.5 16.4 90 1.0 SW 9 11 5 6 1017.9 1017.9 0.0
21/07:30pm 18.2 18.7 16.5 90 1.0 SW 9 11 5 6 1017.7 1017.7 0.0
21/07:00pm 18.5 19.2 16.1 86 1.4 S 7 9 4 5 1017.4 1017.4 0.0
21/06:30pm 19.3 19.7 16.3 83 1.8 SSE 9 9 5 5 1017.1 1017.1 0.0
21/06:00pm 20.0 20.1 16.4 80 2.2 SE 11 15 6 8 1016.9 1016.9 0.0
21/05:30pm 21.6 20.4 16.1 71 3.3 SE 17 22 9 12 1016.4 1016.4 0.0
21/05:00pm 22.4 21.1 15.7 66 4.0 SE 17 20 9 11 1016.0 1016.0 0.0
21/04:30pm 22.4 21.2 16.0 67 3.9 SE 17 24 9 13 1015.7 1015.7 0.0
21/04:00pm 23.3 22.3 16.6 66 4.1 SE 17 20 9 11 1015.5 1015.5 0.0
21/03:30pm 23.2 21.8 16.5 66 4.1 SE 19 24 10 13 1015.4 1015.4 0.0
21/03:00pm 23.3 22.0 15.9 63 4.5 SE 17 28 9 15 1015.5 1015.5 0.0
21/02:30pm 23.1 21.8 14.9 60 4.9 ESE 15 20 8 11 1015.6 1015.6 0.0
21/02:00pm 23.4 21.8 14.9 59 5.1 SE 17 26 9 14 1016.0 1016.0 0.0
21/01:30pm 23.9 22.6 15.9 61 4.8 SE 17 24 9 13 1016.4 1016.4 0.0
21/01:00pm 23.9 22.3 15.9 61 4.8 SE 19 24 10 13 1016.9 1016.9 0.0
21/12:30pm 23.8 22.5 15.8 61 4.8 SE 17 26 9 14 1017.3 1017.3 0.0
21/12:00pm 23.5 21.7 15.5 60 4.8 SSE 19 24 10 13 1017.6 1017.6 0.0
21/11:30am 23.2 21.9 15.8 63 4.5 SSE 17 24 9 13 1017.8 1017.8 0.0
21/11:00am 23.2 22.1 15.3 61 4.7 SSE 15 20 8 11 1018.2 1018.2 0.0
21/10:30am 23.2 23.2 17.2 69 3.7 S 13 19 7 10 1018.1 1018.1 0.0
21/10:00am 22.2 23.5 17.6 75 2.8 S 7 13 4 7 1018.3 1018.3 0.0
21/09:30am 20.8 23.0 17.4 81 2.1 S 2 6 1 3 1018.4 1018.4 0.0
21/09:00am 19.3 21.9 17.6 90 1.0 CALM 0 6 0 3 1018.2 1018.2 0.0
21/08:30am 17.8 20.3 17.2 96 0.4 CALM 0 0 0 0 1018.1 1018.1 0.0
21/08:00am 16.4 18.4 16.1 98 0.2 CALM 0 0 0 0 1017.8 1017.8 0.0
21/07:30am 15.5 17.2 15.3 99 0.1 CALM 0 0 0 0 1017.3 1017.3 0.0
21/07:00am 14.9 16.4 14.6 98 0.2 CALM 0 0 0 0 1016.9 1016.9 0.0
21/06:30am 14.5 15.8 14.2 98 0.2 CALM 0 0 0 0 1016.8 1016.8 0.0
21/06:00am 14.3 15.6 14.0 98 0.2 CALM 0 0 0 0 1016.4 1016.4 0.0
21/05:30am 14.3 15.6 14.0 98 0.2 CALM 0 0 0 0 1016.0 1016.0 0.0
21/05:00am 13.9 15.0 13.4 97 0.3 CALM 0 0 0 0 1015.9 1015.9 0.0

Other Formats:

Comma delimited format used in spreadsheet applications
http://www.bom.gov.au/fwo/IDQ60801/IDQ60801.94280.axf

JavaScript Object Notation format (JSON) in row-major order
http://www.bom.gov.au/fwo/IDQ60801/IDQ60801.94280.json